Terminal Aerodrome Forecast
Issued by NWS

Home | Current Version | Previous Version | Text Only | Print | Product List | Glossary On
Versions: 1 2 3 4 5 6 7 8 9 10 11 12 13 14
947
FTUS46 KEKA 252320
TAFUKI
TAF
KUKI 252320Z 2600/2624 14009KT P6SM SCT025
     FM260600 16005KT P6SM SCT012 BKN025
     FM261100 17004KT 6SM BR OVC012
     FM261700 15006KT P6SM BKN020=

USA.gov is the U.S. government's official web portal to all federal, state and local government web resources and services.